METAR Formatted Surface Weather Observation
Issued by NWS

Home | Current Version | Previous Version | Text Only | Print | Product List | Glossary On
Versions: 1
000
SAUS46 KSGX 040652
MTRSAN
METAR KSAN 040651Z 33003KT 10SM FEW013 SCT250 22/18 A2990 RMK AO2
SLP125 T02170178 $



USA.gov is the U.S. government's official web portal to all federal, state and local government web resources and services.